sensor_id;sensor_type;location;lat;lon;timestamp;temperature;humidity
72202;SHT30;60105;54.956;73.412;2023-09-30T00:02:11;11.70;74.16
72202;SHT30;60105;54.956;73.412;2023-09-30T00:05:14;11.70;73.08
72202;SHT30;60105;54.956;73.412;2023-09-30T00:08:15;11.73;72.71
72202;SHT30;60105;54.956;73.412;2023-09-30T00:11:17;11.73;73.59
72202;SHT30;60105;54.956;73.412;2023-09-30T00:14:19;11.71;73.47
72202;SHT30;60105;54.956;73.412;2023-09-30T00:17:20;11.68;73.79
72202;SHT30;60105;54.956;73.412;2023-09-30T00:20:22;11.67;73.52
72202;SHT30;60105;54.956;73.412;2023-09-30T00:23:23;11.64;73.85
72202;SHT30;60105;54.956;73.412;2023-09-30T00:26:24;11.63;73.68
72202;SHT30;60105;54.956;73.412;2023-09-30T00:29:26;11.63;73.95
72202;SHT30;60105;54.956;73.412;2023-09-30T00:32:28;11.61;74.29
72202;SHT30;60105;54.956;73.412;2023-09-30T00:36:11;11.64;74.56
72202;SHT30;60105;54.956;73.412;2023-09-30T00:39:13;11.63;73.69
72202;SHT30;60105;54.956;73.412;2023-09-30T00:42:15;11.64;74.69
72202;SHT30;60105;54.956;73.412;2023-09-30T00:45:16;11.66;73.68
72202;SHT30;60105;54.956;73.412;2023-09-30T00:48:17;11.66;73.58
72202;SHT30;60105;54.956;73.412;2023-09-30T00:51:19;11.68;73.49
72202;SHT30;60105;54.956;73.412;2023-09-30T00:54:22;11.71;73.79
72202;SHT30;60105;54.956;73.412;2023-09-30T00:57:25;11.68;73.79
72202;SHT30;60105;54.956;73.412;2023-09-30T01:00:37;11.66;74.57
72202;SHT30;60105;54.956;73.412;2023-09-30T01:03:38;11.64;74.51
72202;SHT30;60105;54.956;73.412;2023-09-30T01:06:40;11.64;74.93
72202;SHT30;60105;54.956;73.412;2023-09-30T01:09:42;11.63;75.72
72202;SHT30;60105;54.956;73.412;2023-09-30T01:12:43;11.61;74.26
72202;SHT30;60105;54.956;73.412;2023-09-30T01:16:08;11.64;74.90
72202;SHT30;60105;54.956;73.412;2023-09-30T01:19:12;11.59;74.83
72202;SHT30;60105;54.956;73.412;2023-09-30T01:22:13;11.51;74.89
72202;SHT30;60105;54.956;73.412;2023-09-30T01:25:15;11.53;75.20
72202;SHT30;60105;54.956;73.412;2023-09-30T01:28:16;11.53;74.82
72202;SHT30;60105;54.956;73.412;2023-09-30T01:31:18;11.54;74.82
72202;SHT30;60105;54.956;73.412;2023-09-30T01:34:19;11.50;75.44
72202;SHT30;60105;54.956;73.412;2023-09-30T01:37:21;11.50;74.87
72202;SHT30;60105;54.956;73.412;2023-09-30T01:40:22;11.53;74.29
72202;SHT30;60105;54.956;73.412;2023-09-30T01:43:23;11.56;74.62
72202;SHT30;60105;54.956;73.412;2023-09-30T01:46:25;11.51;75.12
72202;SHT30;60105;54.956;73.412;2023-09-30T01:49:26;11.47;74.83
72202;SHT30;60105;54.956;73.412;2023-09-30T01:52:29;11.43;74.79
72202;SHT30;60105;54.956;73.412;2023-09-30T01:56:07;11.41;75.21
72202;SHT30;60105;54.956;73.412;2023-09-30T01:59:09;11.39;75.19
72202;SHT30;60105;54.956;73.412;2023-09-30T02:02:10;11.34;75.15
72202;SHT30;60105;54.956;73.412;2023-09-30T02:05:12;11.34;74.89
72202;SHT30;60105;54.956;73.412;2023-09-30T02:08:14;11.39;75.05
72202;SHT30;60105;54.956;73.412;2023-09-30T02:11:15;11.46;75.01
72202;SHT30;60105;54.956;73.412;2023-09-30T02:14:18;11.47;74.93
72202;SHT30;60105;54.956;73.412;2023-09-30T02:17:19;11.47;75.36
72202;SHT30;60105;54.956;73.412;2023-09-30T02:20:20;11.50;75.11
72202;SHT30;60105;54.956;73.412;2023-09-30T02:23:26;11.56;74.72
72202;SHT30;60105;54.956;73.412;2023-09-30T02:26:27;11.54;75.65
72202;SHT30;60105;54.956;73.412;2023-09-30T02:29:30;11.53;75.74
72202;SHT30;60105;54.956;73.412;2023-09-30T02:32:32;11.56;74.90
72202;SHT30;60105;54.956;73.412;2023-09-30T02:36:08;11.59;74.66
72202;SHT30;60105;54.956;73.412;2023-09-30T02:39:09;11.64;74.43
72202;SHT30;60105;54.956;73.412;2023-09-30T02:42:11;11.74;74.09
72202;SHT30;60105;54.956;73.412;2023-09-30T02:45:12;11.71;73.73
72202;SHT30;60105;54.956;73.412;2023-09-30T02:48:14;11.73;73.92
72202;SHT30;60105;54.956;73.412;2023-09-30T02:51:15;11.81;73.80
72202;SHT30;60105;54.956;73.412;2023-09-30T02:54:16;11.81;74.08
72202;SHT30;60105;54.956;73.412;2023-09-30T02:57:18;11.77;75.09
72202;SHT30;60105;54.956;73.412;2023-09-30T03:00:21;11.77;74.82
72202;SHT30;60105;54.956;73.412;2023-09-30T03:03:28;11.80;74.66
72202;SHT30;60105;54.956;73.412;2023-09-30T03:06:32;11.85;74.36
72202;SHT30;60105;54.956;73.412;2023-09-30T03:09:34;11.94;74.45
72202;SHT30;60105;54.956;73.412;2023-09-30T03:12:37;11.99;72.71
72202;SHT30;60105;54.956;73.412;2023-09-30T03:16:08;12.01;72.84
72202;SHT30;60105;54.956;73.412;2023-09-30T03:19:10;12.12;73.95
72202;SHT30;60105;54.956;73.412;2023-09-30T03:22:12;12.19;72.46
72202;SHT30;60105;54.956;73.412;2023-09-30T03:25:15;12.21;72.27
72202;SHT30;60105;54.956;73.412;2023-09-30T03:28:20;12.32;71.29
72202;SHT30;60105;54.956;73.412;2023-09-30T03:31:21;12.36;71.07
72202;SHT30;60105;54.956;73.412;2023-09-30T03:34:23;12.39;71.33
72202;SHT30;60105;54.956;73.412;2023-09-30T03:37:25;12.46;71.96
72202;SHT30;60105;54.956;73.412;2023-09-30T03:41:07;12.48;71.67
72202;SHT30;60105;54.956;73.412;2023-09-30T03:44:14;12.60;71.08
72202;SHT30;60105;54.956;73.412;2023-09-30T03:47:16;12.63;71.55
72202;SHT30;60105;54.956;73.412;2023-09-30T03:50:17;12.70;71.94
72202;SHT30;60105;54.956;73.412;2023-09-30T03:53:19;12.76;71.31
72202;SHT30;60105;54.956;73.412;2023-09-30T03:56:21;12.79;71.05
72202;SHT30;60105;54.956;73.412;2023-09-30T03:59:23;12.91;71.71
72202;SHT30;60105;54.956;73.412;2023-09-30T04:02:24;12.94;71.01
72202;SHT30;60105;54.956;73.412;2023-09-30T04:06:07;13.00;70.00
72202;SHT30;60105;54.956;73.412;2023-09-30T04:09:09;13.00;69.20
72202;SHT30;60105;54.956;73.412;2023-09-30T04:12:13;13.06;69.97
72202;SHT30;60105;54.956;73.412;2023-09-30T04:15:15;13.11;69.64
72202;SHT30;60105;54.956;73.412;2023-09-30T04:18:16;13.15;69.67
72202;SHT30;60105;54.956;73.412;2023-09-30T04:21:21;13.19;68.60
72202;SHT30;60105;54.956;73.412;2023-09-30T04:24:22;13.31;68.40
72202;SHT30;60105;54.956;73.412;2023-09-30T04:27:23;13.39;68.13
72202;SHT30;60105;54.956;73.412;2023-09-30T04:30:36;13.45;67.28
72202;SHT30;60105;54.956;73.412;2023-09-30T04:33:38;13.58;67.02
72202;SHT30;60105;54.956;73.412;2023-09-30T04:36:40;13.65;65.85
72202;SHT30;60105;54.956;73.412;2023-09-30T04:39:42;13.67;66.40
72202;SHT30;60105;54.956;73.412;2023-09-30T04:42:44;13.62;66.75
72202;SHT30;60105;54.956;73.412;2023-09-30T04:46:07;13.65;67.32
72202;SHT30;60105;54.956;73.412;2023-09-30T04:49:08;13.69;67.39
72202;SHT30;60105;54.956;73.412;2023-09-30T04:52:10;13.80;67.12
72202;SHT30;60105;54.956;73.412;2023-09-30T04:55:12;13.79;67.32
72202;SHT30;60105;54.956;73.412;2023-09-30T04:58:17;13.85;67.73
72202;SHT30;60105;54.956;73.412;2023-09-30T05:01:18;13.93;67.17
72202;SHT30;60105;54.956;73.412;2023-09-30T05:04:20;13.90;67.75
72202;SHT30;60105;54.956;73.412;2023-09-30T05:07:21;13.97;67.29
72202;SHT30;60105;54.956;73.412;2023-09-30T05:10:22;14.06;67.48
72202;SHT30;60105;54.956;73.412;2023-09-30T05:13:25;14.07;66.53
72202;SHT30;60105;54.956;73.412;2023-09-30T05:16:26;14.09;66.45
72202;SHT30;60105;54.956;73.412;2023-09-30T05:19:28;14.21;65.74
72202;SHT30;60105;54.956;73.412;2023-09-30T05:22:29;14.27;65.37
72202;SHT30;60105;54.956;73.412;2023-09-30T05:26:07;14.38;65.47
72202;SHT30;60105;54.956;73.412;2023-09-30T05:29:09;14.42;64.75
72202;SHT30;60105;54.956;73.412;2023-09-30T05:32:10;14.61;64.51
72202;SHT30;60105;54.956;73.412;2023-09-30T05:35:12;14.76;64.36
72202;SHT30;60105;54.956;73.412;2023-09-30T05:38:14;14.83;64.59
72202;SHT30;60105;54.956;73.412;2023-09-30T05:41:16;14.95;64.52
72202;SHT30;60105;54.956;73.412;2023-09-30T05:44:17;15.00;63.89
72202;SHT30;60105;54.956;73.412;2023-09-30T05:47:19;15.03;63.40
72202;SHT30;60105;54.956;73.412;2023-09-30T05:50:20;14.95;63.16
72202;SHT30;60105;54.956;73.412;2023-09-30T05:53:26;14.96;63.08
72202;SHT30;60105;54.956;73.412;2023-09-30T05:56:28;14.96;63.33
72202;SHT30;60105;54.956;73.412;2023-09-30T05:59:30;14.99;63.16
72202;SHT30;60105;54.956;73.412;2023-09-30T06:02:31;15.10;62.33
72202;SHT30;60105;54.956;73.412;2023-09-30T06:06:11;15.14;62.43
72202;SHT30;60105;54.956;73.412;2023-09-30T06:09:13;15.16;62.50
72202;SHT30;60105;54.956;73.412;2023-09-30T06:12:14;15.24;62.66
72202;SHT30;60105;54.956;73.412;2023-09-30T06:15:16;15.32;62.02
72202;SHT30;60105;54.956;73.412;2023-09-30T06:18:22;15.39;62.08
72202;SHT30;60105;54.956;73.412;2023-09-30T06:21:25;15.46;62.16
72202;SHT30;60105;54.956;73.412;2023-09-30T06:24:29;15.51;61.98
72202;SHT30;60105;54.956;73.412;2023-09-30T06:27:31;15.64;61.32
72202;SHT30;60105;54.956;73.412;2023-09-30T06:30:36;15.72;60.76
72202;SHT30;60105;54.956;73.412;2023-09-30T06:33:38;15.80;60.61
72202;SHT30;60105;54.956;73.412;2023-09-30T06:36:40;15.81;59.73
72202;SHT30;60105;54.956;73.412;2023-09-30T06:39:42;15.94;58.80
72202;SHT30;60105;54.956;73.412;2023-09-30T06:42:43;16.02;58.80
72202;SHT30;60105;54.956;73.412;2023-09-30T06:46:08;16.11;58.42
72202;SHT30;60105;54.956;73.412;2023-09-30T06:49:09;16.21;57.90
72202;SHT30;60105;54.956;73.412;2023-09-30T06:52:11;16.28;57.38
72202;SHT30;60105;54.956;73.412;2023-09-30T06:55:13;16.39;57.72
72202;SHT30;60105;54.956;73.412;2023-09-30T06:58:15;16.42;57.25
72202;SHT30;60105;54.956;73.412;2023-09-30T07:01:21;16.42;57.21
72202;SHT30;60105;54.956;73.412;2023-09-30T07:04:23;16.49;57.46
72202;SHT30;60105;54.956;73.412;2023-09-30T07:07:24;16.55;57.16
72202;SHT30;60105;54.956;73.412;2023-09-30T07:11:06;16.60;56.75
72202;SHT30;60105;54.956;73.412;2023-09-30T07:14:08;16.57;57.06
72202;SHT30;60105;54.956;73.412;2023-09-30T07:17:09;16.61;55.32
72202;SHT30;60105;54.956;73.412;2023-09-30T07:20:11;16.67;55.45
72202;SHT30;60105;54.956;73.412;2023-09-30T07:23:12;16.70;55.40
72202;SHT30;60105;54.956;73.412;2023-09-30T07:26:15;16.74;54.97
72202;SHT30;60105;54.956;73.412;2023-09-30T07:29:16;16.76;54.61
72202;SHT30;60105;54.956;73.412;2023-09-30T07:32:17;16.77;54.85
72202;SHT30;60105;54.956;73.412;2023-09-30T07:35:19;16.85;55.48
72202;SHT30;60105;54.956;73.412;2023-09-30T07:38:20;16.76;54.63
72202;SHT30;60105;54.956;73.412;2023-09-30T07:41:21;16.77;55.53
72202;SHT30;60105;54.956;73.412;2023-09-30T07:44:23;16.73;55.11
72202;SHT30;60105;54.956;73.412;2023-09-30T07:47:24;16.84;55.01
72202;SHT30;60105;54.956;73.412;2023-09-30T07:51:06;16.98;55.68
72202;SHT30;60105;54.956;73.412;2023-09-30T07:54:13;17.01;54.77
72202;SHT30;60105;54.956;73.412;2023-09-30T07:57:15;17.18;54.14
72202;SHT30;60105;54.956;73.412;2023-09-30T08:00:16;17.28;53.60
72202;SHT30;60105;54.956;73.412;2023-09-30T08:03:18;17.31;54.04
72202;SHT30;60105;54.956;73.412;2023-09-30T08:06:19;17.43;53.41
72202;SHT30;60105;54.956;73.412;2023-09-30T08:09:21;17.48;53.53
72202;SHT30;60105;54.956;73.412;2023-09-30T08:12:25;17.58;54.00
72202;SHT30;60105;54.956;73.412;2023-09-30T08:16:06;17.68;53.01
72202;SHT30;60105;54.956;73.412;2023-09-30T08:19:08;17.82;52.74
72202;SHT30;60105;54.956;73.412;2023-09-30T08:22:09;17.87;52.90
72202;SHT30;60105;54.956;73.412;2023-09-30T08:25:11;18.03;52.77
72202;SHT30;60105;54.956;73.412;2023-09-30T08:28:13;17.91;52.11
72202;SHT30;60105;54.956;73.412;2023-09-30T08:31:14;17.86;53.53
72202;SHT30;60105;54.956;73.412;2023-09-30T08:34:16;17.56;54.99
72202;SHT30;60105;54.956;73.412;2023-09-30T08:37:18;17.40;55.73
72202;SHT30;60105;54.956;73.412;2023-09-30T08:40:23;17.22;55.96
72202;SHT30;60105;54.956;73.412;2023-09-30T08:43:25;17.01;57.12
72202;SHT30;60105;54.956;73.412;2023-09-30T08:46:30;16.80;56.39
72202;SHT30;60105;54.956;73.412;2023-09-30T08:49:38;16.71;57.75
72202;SHT30;60105;54.956;73.412;2023-09-30T08:52:44;16.55;60.16
72202;SHT30;60105;54.956;73.412;2023-09-30T08:56:07;16.25;64.40
72202;SHT30;60105;54.956;73.412;2023-09-30T08:59:11;15.94;66.79
72202;SHT30;60105;54.956;73.412;2023-09-30T09:02:12;15.84;68.26
72202;SHT30;60105;54.956;73.412;2023-09-30T09:05:14;15.70;69.61
72202;SHT30;60105;54.956;73.412;2023-09-30T09:08:15;15.64;68.89
72202;SHT30;60105;54.956;73.412;2023-09-30T09:11:17;15.70;68.05
72202;SHT30;60105;54.956;73.412;2023-09-30T09:14:19;15.60;69.17
72202;SHT30;60105;54.956;73.412;2023-09-30T09:17:42;15.37;68.41
72202;SHT30;60105;54.956;73.412;2023-09-30T09:21:11;15.29;68.63
72202;SHT30;60105;54.956;73.412;2023-09-30T09:24:29;15.24;69.59
72202;SHT30;60105;54.956;73.412;2023-09-30T09:27:33;15.24;69.87
72202;SHT30;60105;54.956;73.412;2023-09-30T09:30:38;15.19;69.26
72202;SHT30;60105;54.956;73.412;2023-09-30T09:33:39;14.96;70.26
72202;SHT30;60105;54.956;73.412;2023-09-30T09:36:45;14.85;70.59
72202;SHT30;60105;54.956;73.412;2023-09-30T09:39:54;14.62;71.48
72202;SHT30;60105;54.956;73.412;2023-09-30T09:42:58;14.57;72.65
72202;SHT30;60105;54.956;73.412;2023-09-30T09:46:08;14.62;72.47
72202;SHT30;60105;54.956;73.412;2023-09-30T09:49:09;14.75;72.73
72202;SHT30;60105;54.956;73.412;2023-09-30T09:52:12;14.72;72.60
72202;SHT30;60105;54.956;73.412;2023-09-30T09:55:18;14.65;72.92
72202;SHT30;60105;54.956;73.412;2023-09-30T09:58:20;14.75;72.78
72202;SHT30;60105;54.956;73.412;2023-09-30T10:01:21;14.65;73.46
72202;SHT30;60105;54.956;73.412;2023-09-30T10:04:22;14.60;73.81
72202;SHT30;60105;54.956;73.412;2023-09-30T10:07:33;14.61;74.00
72202;SHT30;60105;54.956;73.412;2023-09-30T10:11:08;14.64;74.36
72202;SHT30;60105;54.956;73.412;2023-09-30T10:14:30;14.69;74.40
72202;SHT30;60105;54.956;73.412;2023-09-30T10:17:59;14.69;74.60
72202;SHT30;60105;54.956;73.412;2023-09-30T10:21:07;14.69;74.51
72202;SHT30;60105;54.956;73.412;2023-09-30T10:30:36;14.54;74.23
72202;SHT30;60105;54.956;73.412;2023-09-30T10:37:22;14.48;73.50
72202;SHT30;60105;54.956;73.412;2023-09-30T10:41:08;14.62;73.96
72202;SHT30;60105;54.956;73.412;2023-09-30T10:51:17;14.91;72.85
72202;SHT30;60105;54.956;73.412;2023-09-30T10:54:23;15.02;72.54
72202;SHT30;60105;54.956;73.412;2023-09-30T10:57:27;15.06;72.82
72202;SHT30;60105;54.956;73.412;2023-09-30T11:00:36;15.18;72.05
72202;SHT30;60105;54.956;73.412;2023-09-30T11:03:40;15.03;72.08
72202;SHT30;60105;54.956;73.412;2023-09-30T11:06:50;15.03;72.01
72202;SHT30;60105;54.956;73.412;2023-09-30T11:09:53;15.03;72.36
72202;SHT30;60105;54.956;73.412;2023-09-30T11:12:58;14.93;72.67
72202;SHT30;60105;54.956;73.412;2023-09-30T11:16:07;14.91;72.43
72202;SHT30;60105;54.956;73.412;2023-09-30T11:19:10;14.96;72.00
72202;SHT30;60105;54.956;73.412;2023-09-30T11:22:12;14.91;71.94
72202;SHT30;60105;54.956;73.412;2023-09-30T11:25:16;14.89;72.09
72202;SHT30;60105;54.956;73.412;2023-09-30T11:28:20;14.76;72.16
72202;SHT30;60105;54.956;73.412;2023-09-30T11:31:22;14.64;72.94
72202;SHT30;60105;54.956;73.412;2023-09-30T11:34:35;14.52;73.39
72202;SHT30;60105;54.956;73.412;2023-09-30T11:37:41;14.60;73.57
72202;SHT30;60105;54.956;73.412;2023-09-30T11:41:07;14.57;74.14
72202;SHT30;60105;54.956;73.412;2023-09-30T11:44:11;14.60;74.18
72202;SHT30;60105;54.956;73.412;2023-09-30T11:47:28;14.55;74.23
72202;SHT30;60105;54.956;73.412;2023-09-30T11:51:07;14.48;74.38
72202;SHT30;60105;54.956;73.412;2023-09-30T11:54:10;14.37;74.77
72202;SHT30;60105;54.956;73.412;2023-09-30T11:57:15;14.33;75.20
72202;SHT30;60105;54.956;73.412;2023-09-30T12:00:16;14.23;75.20
72202;SHT30;60105;54.956;73.412;2023-09-30T12:03:19;14.25;74.58
72202;SHT30;60105;54.956;73.412;2023-09-30T12:06:36;14.07;75.58
72202;SHT30;60105;54.956;73.412;2023-09-30T12:09:51;13.96;74.93
72202;SHT30;60105;54.956;73.412;2023-09-30T12:13:08;14.00;74.91
72202;SHT30;60105;54.956;73.412;2023-09-30T12:16:20;14.06;74.50
72202;SHT30;60105;54.956;73.412;2023-09-30T12:19:37;14.07;74.76
72202;SHT30;60105;54.956;73.412;2023-09-30T12:22:39;14.03;74.50
72202;SHT30;60105;54.956;73.412;2023-09-30T12:26:07;13.99;74.97
72202;SHT30;60105;54.956;73.412;2023-09-30T12:29:11;13.95;75.03
72202;SHT30;60105;54.956;73.412;2023-09-30T12:32:12;13.82;75.41
72202;SHT30;60105;54.956;73.412;2023-09-30T12:35:14;13.76;75.70
72202;SHT30;60105;54.956;73.412;2023-09-30T12:38:15;13.82;75.17
72202;SHT30;60105;54.956;73.412;2023-09-30T12:41:17;13.77;75.30
72202;SHT30;60105;54.956;73.412;2023-09-30T12:44:20;13.75;76.06
72202;SHT30;60105;54.956;73.412;2023-09-30T12:47:21;13.63;75.60
72202;SHT30;60105;54.956;73.412;2023-09-30T12:50:23;13.62;75.98
72202;SHT30;60105;54.956;73.412;2023-09-30T12:53:24;13.62;75.87
72202;SHT30;60105;54.956;73.412;2023-09-30T12:56:26;13.45;76.36
72202;SHT30;60105;54.956;73.412;2023-09-30T12:59:36;13.35;76.73
72202;SHT30;60105;54.956;73.412;2023-09-30T13:02:37;13.22;77.17
72202;SHT30;60105;54.956;73.412;2023-09-30T13:06:07;13.06;77.82
72202;SHT30;60105;54.956;73.412;2023-09-30T13:09:08;13.01;77.95
72202;SHT30;60105;54.956;73.412;2023-09-30T13:12:10;12.91;77.95
72202;SHT30;60105;54.956;73.412;2023-09-30T13:15:11;12.91;78.09
72202;SHT30;60105;54.956;73.412;2023-09-30T13:18:15;12.84;77.99
72202;SHT30;60105;54.956;73.412;2023-09-30T13:21:16;12.90;77.97
72202;SHT30;60105;54.956;73.412;2023-09-30T13:24:17;12.80;78.46
72202;SHT30;60105;54.956;73.412;2023-09-30T13:27:19;12.75;78.43
72202;SHT30;60105;54.956;73.412;2023-09-30T13:30:20;12.60;79.05
72202;SHT30;60105;54.956;73.412;2023-09-30T13:33:23;12.57;79.00
72202;SHT30;60105;54.956;73.412;2023-09-30T13:36:25;12.69;78.76
72202;SHT30;60105;54.956;73.412;2023-09-30T13:39:26;12.66;78.69
72202;SHT30;60105;54.956;73.412;2023-09-30T13:42:28;12.67;78.26
72202;SHT30;60105;54.956;73.412;2023-09-30T13:46:07;12.57;78.42
72202;SHT30;60105;54.956;73.412;2023-09-30T13:49:17;12.56;78.42
72202;SHT30;60105;54.956;73.412;2023-09-30T13:52:21;12.45;78.57
72202;SHT30;60105;54.956;73.412;2023-09-30T13:55:23;12.36;78.96
72202;SHT30;60105;54.956;73.412;2023-09-30T13:58:24;12.39;78.99
72202;SHT30;60105;54.956;73.412;2023-09-30T14:01:28;12.33;78.86
72202;SHT30;60105;54.956;73.412;2023-09-30T14:04:30;12.29;79.19
72202;SHT30;60105;54.956;73.412;2023-09-30T14:07:36;12.29;79.01
72202;SHT30;60105;54.956;73.412;2023-09-30T14:11:08;12.21;79.47
72202;SHT30;60105;54.956;73.412;2023-09-30T14:14:09;12.24;79.22
72202;SHT30;60105;54.956;73.412;2023-09-30T14:17:10;12.22;79.25
72202;SHT30;60105;54.956;73.412;2023-09-30T14:20:12;12.26;78.90
72202;SHT30;60105;54.956;73.412;2023-09-30T14:23:14;12.24;78.94
72202;SHT30;60105;54.956;73.412;2023-09-30T14:26:15;12.15;79.06
72202;SHT30;60105;54.956;73.412;2023-09-30T14:29:16;12.19;79.09
72202;SHT30;60105;54.956;73.412;2023-09-30T14:32:18;12.21;79.00
72202;SHT30;60105;54.956;73.412;2023-09-30T14:35:19;12.14;79.35
72202;SHT30;60105;54.956;73.412;2023-09-30T14:38:21;12.18;78.94
72202;SHT30;60105;54.956;73.412;2023-09-30T14:41:22;12.17;78.58
72202;SHT30;60105;54.956;73.412;2023-09-30T14:44:23;12.12;78.70
72202;SHT30;60105;54.956;73.412;2023-09-30T14:47:26;12.02;79.15
72202;SHT30;60105;54.956;73.412;2023-09-30T14:51:07;11.95;79.42
72202;SHT30;60105;54.956;73.412;2023-09-30T14:54:08;11.78;79.82
72202;SHT30;60105;54.956;73.412;2023-09-30T14:57:10;11.81;80.10
72202;SHT30;60105;54.956;73.412;2023-09-30T15:00:15;11.81;80.37
72202;SHT30;60105;54.956;73.412;2023-09-30T15:03:16;11.80;80.12
72202;SHT30;60105;54.956;73.412;2023-09-30T15:06:17;11.77;80.28
72202;SHT30;60105;54.956;73.412;2023-09-30T15:09:19;11.80;80.10
72202;SHT30;60105;54.956;73.412;2023-09-30T15:12:20;11.74;80.50
72202;SHT30;60105;54.956;73.412;2023-09-30T15:15:21;11.67;80.44
72202;SHT30;60105;54.956;73.412;2023-09-30T15:18:23;11.68;80.27
72202;SHT30;60105;54.956;73.412;2023-09-30T15:21:24;11.78;79.98
72202;SHT30;60105;54.956;73.412;2023-09-30T15:24:26;11.78;79.67
72202;SHT30;60105;54.956;73.412;2023-09-30T15:27:27;11.77;80.40
72202;SHT30;60105;54.956;73.412;2023-09-30T15:30:36;11.64;80.17
72202;SHT30;60105;54.956;73.412;2023-09-30T15:33:37;11.59;79.98
72202;SHT30;60105;54.956;73.412;2023-09-30T15:36:38;11.54;80.17
72202;SHT30;60105;54.956;73.412;2023-09-30T15:39:41;11.53;79.91
72202;SHT30;60105;54.956;73.412;2023-09-30T15:42:43;11.51;79.82
72202;SHT30;60105;54.956;73.412;2023-09-30T15:46:10;11.41;80.56
72202;SHT30;60105;54.956;73.412;2023-09-30T15:49:11;11.49;80.63
72202;SHT30;60105;54.956;73.412;2023-09-30T15:52:13;11.40;80.71
72202;SHT30;60105;54.956;73.412;2023-09-30T15:55:14;11.39;80.70
72202;SHT30;60105;54.956;73.412;2023-09-30T15:58:15;11.12;81.59
72202;SHT30;60105;54.956;73.412;2023-09-30T16:01:17;11.13;81.31
72202;SHT30;60105;54.956;73.412;2023-09-30T16:04:19;11.05;81.69
72202;SHT30;60105;54.956;73.412;2023-09-30T16:07:20;11.03;81.96
72202;SHT30;60105;54.956;73.412;2023-09-30T16:10:21;11.01;81.73
72202;SHT30;60105;54.956;73.412;2023-09-30T16:13:22;10.95;81.88
72202;SHT30;60105;54.956;73.412;2023-09-30T16:16:24;10.91;82.14
72202;SHT30;60105;54.956;73.412;2023-09-30T16:19:26;10.91;82.01
72202;SHT30;60105;54.956;73.412;2023-09-30T16:22:29;11.01;81.27
72202;SHT30;60105;54.956;73.412;2023-09-30T16:26:07;10.99;82.25
72202;SHT30;60105;54.956;73.412;2023-09-30T16:29:08;11.02;80.38
72202;SHT30;60105;54.956;73.412;2023-09-30T16:32:10;11.13;79.87
72202;SHT30;60105;54.956;73.412;2023-09-30T16:35:12;11.03;79.66
72202;SHT30;60105;54.956;73.412;2023-09-30T16:38:13;10.96;79.88
72202;SHT30;60105;54.956;73.412;2023-09-30T16:41:15;10.99;79.65
72202;SHT30;60105;54.956;73.412;2023-09-30T16:44:16;10.96;79.30
72202;SHT30;60105;54.956;73.412;2023-09-30T16:47:18;10.86;79.57
72202;SHT30;60105;54.956;73.412;2023-09-30T16:50:19;10.83;79.56
72202;SHT30;60105;54.956;73.412;2023-09-30T16:53:22;10.78;79.82
72202;SHT30;60105;54.956;73.412;2023-09-30T16:56:25;10.91;79.38
72202;SHT30;60105;54.956;73.412;2023-09-30T16:59:27;10.89;79.04
72202;SHT30;60105;54.956;73.412;2023-09-30T17:02:28;10.75;78.30
72202;SHT30;60105;54.956;73.412;2023-09-30T17:06:07;10.71;77.94
72202;SHT30;60105;54.956;73.412;2023-09-30T17:09:08;10.65;78.14
72202;SHT30;60105;54.956;73.412;2023-09-30T17:12:11;10.71;78.36
72202;SHT30;60105;54.956;73.412;2023-09-30T17:15:13;10.64;77.81
72202;SHT30;60105;54.956;73.412;2023-09-30T17:18:15;10.64;77.56
72202;SHT30;60105;54.956;73.412;2023-09-30T17:21:16;10.60;76.91
72202;SHT30;60105;54.956;73.412;2023-09-30T17:24:17;10.55;76.76
72202;SHT30;60105;54.956;73.412;2023-09-30T17:27:18;10.61;77.20
72202;SHT30;60105;54.956;73.412;2023-09-30T17:30:20;10.54;76.02
72202;SHT30;60105;54.956;73.412;2023-09-30T17:33:22;10.45;76.61
72202;SHT30;60105;54.956;73.412;2023-09-30T17:36:23;10.44;76.16
72202;SHT30;60105;54.956;73.412;2023-09-30T17:39:25;10.38;76.74
72202;SHT30;60105;54.956;73.412;2023-09-30T17:42:27;10.27;75.65
72202;SHT30;60105;54.956;73.412;2023-09-30T17:46:11;10.30;75.47
72202;SHT30;60105;54.956;73.412;2023-09-30T17:49:12;10.30;74.30
72202;SHT30;60105;54.956;73.412;2023-09-30T17:52:14;10.16;74.23
72202;SHT30;60105;54.956;73.412;2023-09-30T17:55:15;10.20;74.08
72202;SHT30;60105;54.956;73.412;2023-09-30T17:58:16;10.21;73.36
72202;SHT30;60105;54.956;73.412;2023-09-30T18:01:18;10.21;73.03
72202;SHT30;60105;54.956;73.412;2023-09-30T18:04:22;10.23;73.27
72202;SHT30;60105;54.956;73.412;2023-09-30T18:07:23;10.16;73.66
72202;SHT30;60105;54.956;73.412;2023-09-30T18:11:07;10.14;71.94
72202;SHT30;60105;54.956;73.412;2023-09-30T18:14:09;10.13;71.31
72202;SHT30;60105;54.956;73.412;2023-09-30T18:17:17;10.10;70.70
72202;SHT30;60105;54.956;73.412;2023-09-30T18:20:18;10.06;70.85
72202;SHT30;60105;54.956;73.412;2023-09-30T18:23:19;10.02;71.09
72202;SHT30;60105;54.956;73.412;2023-09-30T18:26:20;10.04;70.43
72202;SHT30;60105;54.956;73.412;2023-09-30T18:29:22;10.00;71.01
72202;SHT30;60105;54.956;73.412;2023-09-30T18:32:23;10.07;70.68
72202;SHT30;60105;54.956;73.412;2023-09-30T18:36:07;10.03;70.19
72202;SHT30;60105;54.956;73.412;2023-09-30T18:39:09;9.97;70.69
72202;SHT30;60105;54.956;73.412;2023-09-30T18:42:13;9.90;70.44
72202;SHT30;60105;54.956;73.412;2023-09-30T18:45:14;9.94;70.52
72202;SHT30;60105;54.956;73.412;2023-09-30T18:48:15;9.89;69.28
72202;SHT30;60105;54.956;73.412;2023-09-30T18:51:19;9.89;69.25
72202;SHT30;60105;54.956;73.412;2023-09-30T18:54:21;9.76;69.71
72202;SHT30;60105;54.956;73.412;2023-09-30T18:57:22;9.72;69.62
72202;SHT30;60105;54.956;73.412;2023-09-30T19:00:40;9.66;70.49
72202;SHT30;60105;54.956;73.412;2023-09-30T19:03:41;9.61;70.44
72202;SHT30;60105;54.956;73.412;2023-09-30T19:06:43;9.61;71.25
72202;SHT30;60105;54.956;73.412;2023-09-30T19:09:46;9.54;70.43
72202;SHT30;60105;54.956;73.412;2023-09-30T19:12:47;9.52;71.41
72202;SHT30;60105;54.956;73.412;2023-09-30T19:16:07;9.56;70.91
72202;SHT30;60105;54.956;73.412;2023-09-30T19:19:09;9.49;70.55
72202;SHT30;60105;54.956;73.412;2023-09-30T19:22:10;9.52;70.82
72202;SHT30;60105;54.956;73.412;2023-09-30T19:25:11;9.41;69.87
72202;SHT30;60105;54.956;73.412;2023-09-30T19:28:13;9.36;71.02
72202;SHT30;60105;54.956;73.412;2023-09-30T19:31:15;9.31;69.64
72202;SHT30;60105;54.956;73.412;2023-09-30T19:34:17;9.21;68.94